METAR|ÜBERSETZT|TAF
EDHK 251720Z 01012KT 4300 SHRA BR OVC004CB 17/17 Q1009
Login|Impressum|Kontakt



Buchtipp - Dieter Steffen: Prägung

Lesenswert und spannende Fliegerlektüre. Hier klicken für die Rezension.



Hier erfahren Sie alles über Motorflug Segelflug Fallschirmspringen Ballonfahren




Der LSV-Kiel ist Mitglied im
Luftsportverband Schleswig-Holstein und im
DAeC